createdAt,value
2023-01-27T00:00:13.499Z,101407.84
2023-01-27T00:02:42.816Z,101413.22
2023-01-27T00:05:11.154Z,101418.03
2023-01-27T00:07:38.311Z,101419.00
2023-01-27T00:10:06.549Z,101417.81
2023-01-27T00:12:51.684Z,101422.41
2023-01-27T00:15:18.295Z,101421.06
2023-01-27T00:17:44.759Z,101423.09
2023-01-27T00:20:12.062Z,101407.41
2023-01-27T00:22:59.019Z,101408.19
2023-01-27T00:25:25.702Z,101418.19
2023-01-27T00:27:52.279Z,101419.72
2023-01-27T00:30:19.071Z,101416.13
2023-01-27T00:33:04.253Z,101422.47
2023-01-27T00:35:30.809Z,101423.38
2023-01-27T00:37:57.324Z,101418.00
2023-01-27T00:40:23.880Z,101415.81
2023-01-27T00:42:50.396Z,101420.16
2023-01-27T00:45:49.365Z,101419.00
2023-01-27T00:48:15.988Z,101433.91
2023-01-27T00:50:44.934Z,101423.22
2023-01-27T00:53:11.617Z,101419.84
2023-01-27T00:55:38.135Z,101419.28
2023-01-27T00:58:06.158Z,101417.75
2023-01-27T01:00:32.767Z,101423.03
2023-01-27T01:02:59.465Z,101421.19
2023-01-27T01:05:26.008Z,101420.06
2023-01-27T01:07:52.503Z,101433.50
2023-01-27T01:10:19.058Z,101434.00
2023-01-27T01:12:45.702Z,101437.28
2023-01-27T01:15:12.285Z,101427.47
2023-01-27T01:17:39.034Z,101437.94
2023-01-27T01:20:06.219Z,101444.16
2023-01-27T01:22:32.770Z,101446.19
2023-01-27T01:24:59.239Z,101444.88
2023-01-27T01:27:26.278Z,101451.38
2023-01-27T01:29:52.938Z,101450.31
2023-01-27T01:32:19.592Z,101455.09
2023-01-27T01:34:46.158Z,101457.00
2023-01-27T01:37:12.744Z,101462.09
2023-01-27T01:39:40.896Z,101465.69
2023-01-27T01:42:07.461Z,101470.72
2023-01-27T01:44:34.064Z,101479.00
2023-01-27T01:47:00.702Z,101477.00
2023-01-27T01:49:32.957Z,101479.13
2023-01-27T01:52:03.959Z,101481.38
2023-01-27T01:54:37.483Z,101478.00
2023-01-27T01:57:10.438Z,101484.16
2023-01-27T01:59:42.338Z,101478.00
2023-01-27T02:02:12.832Z,101483.50
2023-01-27T02:04:48.222Z,101490.22
2023-01-27T02:07:35.109Z,101485.22
2023-01-27T02:10:02.013Z,101499.00
2023-01-27T02:12:29.737Z,101491.28
2023-01-27T02:14:56.589Z,101484.22
2023-01-27T02:17:23.195Z,101490.09
2023-01-27T02:20:08.517Z,101490.06
2023-01-27T02:23:12.901Z,101490.06
2023-01-27T02:25:51.045Z,101494.69
2023-01-27T02:28:17.775Z,101495.41
2023-01-27T02:30:44.790Z,101486.44
2023-01-27T02:33:15.497Z,101487.66
2023-01-27T02:35:54.139Z,101482.66
2023-01-27T02:38:21.538Z,101481.34
2023-01-27T02:40:53.724Z,101481.13
2023-01-27T02:43:20.442Z,101483.38
2023-01-27T02:45:47.441Z,101491.84
2023-01-27T02:48:15.221Z,101486.88
2023-01-27T02:50:41.758Z,101488.38
2023-01-27T02:53:08.588Z,101488.22
2023-01-27T02:55:36.392Z,101488.03
2023-01-27T02:58:03.762Z,101492.91
2023-01-27T03:00:46.989Z,101496.84
2023-01-27T03:03:13.507Z,101501.69
2023-01-27T03:05:40.965Z,101502.53
2023-01-27T03:08:07.853Z,101499.41
2023-01-27T03:10:35.293Z,101494.88
2023-01-27T03:13:02.219Z,101500.25
2023-01-27T03:15:47.645Z,101500.25
2023-01-27T03:18:15.980Z,101500.03
2023-01-27T03:20:46.154Z,101495.31
2023-01-27T03:23:15.561Z,101496.13
2023-01-27T03:25:48.226Z,101501.09
2023-01-27T03:28:15.030Z,101490.91
2023-01-27T03:31:19.147Z,101500.38
2023-01-27T03:33:53.054Z,101488.59
2023-01-27T03:36:47.170Z,101491.06
2023-01-27T03:39:33.006Z,101493.69
2023-01-27T03:42:18.274Z,101485.41
2023-01-27T03:45:04.801Z,101495.25
2023-01-27T03:47:31.792Z,101484.41
2023-01-27T03:49:58.347Z,101477.50
2023-01-27T03:52:24.882Z,101478.84
2023-01-27T03:54:51.370Z,101484.34
2023-01-27T03:57:18.005Z,101484.66
2023-01-27T03:59:44.562Z,101495.28
2023-01-27T04:02:29.911Z,101490.28
2023-01-27T04:05:15.818Z,101492.03
2023-01-27T04:07:42.510Z,101491.00
2023-01-27T04:10:09.915Z,101491.16
2023-01-27T04:12:36.494Z,101488.25
2023-01-27T04:15:03.321Z,101483.78
2023-01-27T04:17:30.725Z,101478.97
2023-01-27T04:19:58.343Z,101489.53
2023-01-27T04:22:24.912Z,101484.59
2023-01-27T04:24:51.458Z,101485.44
2023-01-27T04:27:20.236Z,101490.72
2023-01-27T04:29:46.948Z,101491.34
2023-01-27T04:32:14.160Z,101493.63
2023-01-27T04:34:41.926Z,101486.59
2023-01-27T04:37:09.677Z,101493.38
2023-01-27T04:39:36.469Z,101495.31
2023-01-27T04:42:03.578Z,101502.44
2023-01-27T04:44:30.362Z,101499.91
2023-01-27T04:46:57.024Z,101508.63
2023-01-27T04:49:23.605Z,101506.16
2023-01-27T04:51:50.181Z,101500.78
2023-01-27T04:54:17.357Z,101512.25
2023-01-27T04:56:59.548Z,101512.34
2023-01-27T04:59:27.083Z,101507.78
2023-01-27T05:01:53.892Z,101508.13
2023-01-27T05:04:20.638Z,101506.84
2023-01-27T05:06:47.312Z,101509.72
2023-01-27T05:09:13.933Z,101512.41
2023-01-27T05:11:40.486Z,101518.16
2023-01-27T05:14:07.069Z,101518.78
2023-01-27T05:16:33.758Z,101525.56
2023-01-27T05:19:00.450Z,101524.06
2023-01-27T05:21:30.925Z,101527.16
2023-01-27T05:23:57.868Z,101514.81
2023-01-27T05:26:27.097Z,101533.03
2023-01-27T05:28:56.392Z,101521.75
2023-01-27T05:31:25.959Z,101519.09
2023-01-27T05:33:54.256Z,101528.91
2023-01-27T05:36:22.149Z,101523.97
2023-01-27T05:38:49.161Z,101524.84
2023-01-27T05:41:17.781Z,101526.59
2023-01-27T05:43:46.080Z,101529.25
2023-01-27T05:46:18.825Z,101524.19
2023-01-27T05:48:48.353Z,101531.06
2023-01-27T05:51:16.550Z,101538.06
2023-01-27T05:53:44.397Z,101541.59
2023-01-27T05:56:13.208Z,101538.44
2023-01-27T05:58:40.231Z,101540.75
2023-01-27T06:01:11.968Z,101536.06
2023-01-27T06:03:38.948Z,101537.84
2023-01-27T06:06:06.749Z,101534.31
2023-01-27T06:08:33.833Z,101528.22
2023-01-27T06:11:00.644Z,101531.53
2023-01-27T06:13:27.292Z,101526.88
2023-01-27T06:15:55.775Z,101533.59
2023-01-27T06:18:23.262Z,101534.50
2023-01-27T06:20:49.849Z,101536.44
2023-01-27T06:23:18.114Z,101540.38
2023-01-27T06:25:47.137Z,101539.56
2023-01-27T06:28:27.888Z,101553.03
2023-01-27T06:30:56.495Z,101554.78
2023-01-27T06:33:23.416Z,101552.53
2023-01-27T06:35:50.045Z,101562.16
2023-01-27T06:38:17.094Z,101563.09
2023-01-27T06:40:44.220Z,101558.69
2023-01-27T06:43:13.576Z,101562.94
2023-01-27T06:45:40.285Z,101559.28
2023-01-27T06:48:08.286Z,101572.34
2023-01-27T06:50:36.016Z,101568.88
2023-01-27T06:53:05.609Z,101562.25
2023-01-27T06:55:32.533Z,101566.47
2023-01-27T06:57:59.040Z,101563.78
2023-01-27T07:00:25.716Z,101568.25
2023-01-27T07:02:55.498Z,101576.38
2023-01-27T07:05:22.304Z,101573.69
2023-01-27T07:07:48.937Z,101580.56
2023-01-27T07:10:16.158Z,101578.16
2023-01-27T07:12:43.031Z,101587.25
2023-01-27T07:15:10.513Z,101585.19
2023-01-27T07:17:37.618Z,101589.31
2023-01-27T07:20:05.734Z,101589.59
2023-01-27T07:22:32.591Z,101593.97
2023-01-27T07:24:59.358Z,101596.03
2023-01-27T07:27:26.399Z,101598.00
2023-01-27T07:29:53.055Z,101601.53
2023-01-27T07:32:20.063Z,101597.88
2023-01-27T07:34:46.663Z,101602.69
2023-01-27T07:37:14.027Z,101606.22
2023-01-27T07:39:40.993Z,101604.72
2023-01-27T07:42:09.188Z,101605.97
2023-01-27T07:44:36.936Z,101610.13
2023-01-27T07:47:05.487Z,101616.75
2023-01-27T07:49:32.345Z,101617.88
2023-01-27T07:51:59.029Z,101610.47
2023-01-27T07:54:25.564Z,101618.50
2023-01-27T07:56:52.112Z,101613.22
2023-01-27T07:59:18.717Z,101610.38
2023-01-27T08:01:47.882Z,101617.72
2023-01-27T08:04:15.293Z,101617.06
2023-01-27T08:06:41.830Z,101612.53
2023-01-27T08:09:08.617Z,101610.09
2023-01-27T08:11:35.593Z,101616.34
2023-01-27T08:14:02.572Z,101620.56
2023-01-27T08:16:29.305Z,101616.22
2023-01-27T08:18:56.798Z,101616.78
2023-01-27T08:21:25.164Z,101619.75
2023-01-27T08:23:54.667Z,101617.13
2023-01-27T08:26:24.975Z,101617.88
2023-01-27T08:28:51.688Z,101625.22
2023-01-27T08:31:18.312Z,101629.66
2023-01-27T08:33:50.022Z,101640.56
2023-01-27T08:36:17.941Z,101635.94
2023-01-27T08:38:45.358Z,101620.25
2023-01-27T08:41:15.156Z,101632.00
2023-01-27T08:43:42.108Z,101632.31
2023-01-27T08:46:09.636Z,101634.34
2023-01-27T08:48:37.027Z,101638.44
2023-01-27T08:51:04.718Z,101633.81
2023-01-27T08:53:33.106Z,101641.56
2023-01-27T08:56:04.965Z,101635.41
2023-01-27T08:58:33.228Z,101646.59
2023-01-27T09:01:02.168Z,101642.22
2023-01-27T09:03:33.535Z,101647.25
2023-01-27T09:06:00.749Z,101649.47
2023-01-27T09:08:28.343Z,101654.09
2023-01-27T09:10:55.167Z,101662.63
2023-01-27T09:13:24.724Z,101661.09
2023-01-27T09:15:54.523Z,101654.81
2023-01-27T09:18:21.349Z,101664.38
2023-01-27T09:20:47.984Z,101661.53
2023-01-27T09:23:14.584Z,101669.16
2023-01-27T09:25:41.190Z,101671.84
2023-01-27T09:28:16.627Z,101679.41
2023-01-27T09:30:46.208Z,101676.56
2023-01-27T09:33:16.955Z,101685.25
2023-01-27T09:35:48.319Z,101684.09
2023-01-27T09:38:20.334Z,101695.00
2023-01-27T09:40:54.937Z,101687.06
2023-01-27T09:43:38.249Z,101693.53
2023-01-27T09:46:23.565Z,101695.06
2023-01-27T09:49:09.356Z,101701.34
2023-01-27T09:51:47.892Z,101692.66
2023-01-27T09:54:33.985Z,101693.31
2023-01-27T09:57:18.030Z,101694.25
2023-01-27T10:00:02.815Z,101698.19
2023-01-27T10:02:53.151Z,101688.69
2023-01-27T10:05:30.270Z,101690.19
2023-01-27T10:08:20.216Z,101698.03
2023-01-27T10:10:55.864Z,101686.78
2023-01-27T10:13:43.830Z,101689.03
2023-01-27T10:16:32.181Z,101688.25
2023-01-27T10:19:15.411Z,101686.78
2023-01-27T10:22:00.221Z,101683.63
2023-01-27T10:24:41.093Z,101691.81
2023-01-27T10:27:18.019Z,101688.34
2023-01-27T10:29:46.622Z,101690.69
2023-01-27T10:32:15.879Z,101696.91
2023-01-27T10:35:25.050Z,101697.41
2023-01-27T10:38:08.197Z,101692.66
2023-01-27T10:40:52.944Z,101703.22
2023-01-27T10:43:25.575Z,101704.19
2023-01-27T10:46:14.082Z,101702.19
2023-01-27T10:48:48.222Z,101705.06
2023-01-27T10:51:19.477Z,101706.41
2023-01-27T10:54:05.628Z,101698.50
2023-01-27T10:56:45.335Z,101700.81
2023-01-27T10:59:33.927Z,101707.97
2023-01-27T11:02:13.746Z,101712.31
2023-01-27T11:04:46.854Z,101699.34
2023-01-27T11:07:17.609Z,101695.94
2023-01-27T11:09:52.474Z,101694.31
2023-01-27T11:12:40.671Z,101702.97
2023-01-27T11:15:18.832Z,101698.88
2023-01-27T11:17:55.073Z,101698.84
2023-01-27T11:20:32.154Z,101699.09
2023-01-27T11:23:12.882Z,101698.56
2023-01-27T11:26:05.826Z,101692.84
2023-01-27T11:28:59.881Z,101694.44
2023-01-27T11:31:46.597Z,101686.22
2023-01-27T11:34:25.670Z,101691.13
2023-01-27T11:36:52.753Z,101683.00
2023-01-27T11:39:19.712Z,101689.47
2023-01-27T11:41:51.003Z,101689.16
2023-01-27T11:44:20.609Z,101681.84
2023-01-27T11:46:49.152Z,101677.88
2023-01-27T11:49:23.750Z,101671.06
2023-01-27T11:51:50.277Z,101672.13
2023-01-27T11:54:29.317Z,101669.66
2023-01-27T11:56:55.915Z,101662.47
2023-01-27T11:59:38.388Z,101657.69
2023-01-27T12:02:08.156Z,101656.41
2023-01-27T12:05:14.340Z,101658.50
2023-01-27T12:07:44.216Z,101669.56
2023-01-27T12:10:31.418Z,101664.69
2023-01-27T12:13:01.499Z,101668.13
2023-01-27T12:15:30.701Z,101660.66
2023-01-27T12:18:03.359Z,101660.31
2023-01-27T12:20:40.404Z,101667.56
2023-01-27T12:23:23.942Z,101663.72
2023-01-27T12:25:57.236Z,101666.63
2023-01-27T12:28:37.555Z,101662.59
2023-01-27T12:31:13.793Z,101662.00
2023-01-27T12:33:45.676Z,101658.94
2023-01-27T12:36:18.050Z,101660.72
2023-01-27T12:39:02.929Z,101664.75
2023-01-27T12:41:34.176Z,101653.31
2023-01-27T12:44:29.943Z,101652.50
2023-01-27T12:47:03.658Z,101640.66
2023-01-27T12:49:34.890Z,101650.06
2023-01-27T12:52:04.812Z,101651.22
2023-01-27T12:54:32.793Z,101645.59
2023-01-27T12:57:06.752Z,101650.56
2023-01-27T12:59:34.202Z,101651.28
2023-01-27T13:02:16.550Z,101649.19
2023-01-27T13:04:45.141Z,101654.22
2023-01-27T13:07:17.378Z,101651.06
2023-01-27T13:10:00.775Z,101650.97
2023-01-27T13:12:32.447Z,101649.91
2023-01-27T13:15:08.583Z,101649.53
2023-01-27T13:17:37.422Z,101650.94
2023-01-27T13:20:14.898Z,101657.38
2023-01-27T13:22:48.248Z,101655.38
2023-01-27T13:25:23.181Z,101649.50
2023-01-27T13:27:54.157Z,101659.22
2023-01-27T13:30:30.144Z,101664.94
2023-01-27T13:33:04.040Z,101665.97
2023-01-27T13:35:57.476Z,101674.16
2023-01-27T13:38:44.955Z,101675.91
2023-01-27T13:41:20.810Z,101669.38
2023-01-27T13:44:29.211Z,101679.47
2023-01-27T13:47:00.206Z,101674.06
2023-01-27T13:49:48.205Z,101684.25
2023-01-27T13:52:14.981Z,101688.47
2023-01-27T13:54:41.779Z,101683.38
2023-01-27T13:57:48.281Z,101677.28
2023-01-27T14:00:33.589Z,101689.53
2023-01-27T14:03:19.805Z,101681.53
2023-01-27T14:06:02.727Z,101690.63
2023-01-27T14:08:49.949Z,101691.91
2023-01-27T14:11:31.625Z,101692.31
2023-01-27T14:14:07.410Z,101681.22
2023-01-27T14:17:08.131Z,101683.03
2023-01-27T14:19:44.577Z,101678.78
2023-01-27T14:22:28.902Z,101690.63
2023-01-27T14:24:57.859Z,101686.81
2023-01-27T14:30:28.393Z,101693.97
2023-01-27T14:33:03.494Z,101689.84
2023-01-27T14:35:44.037Z,101688.25
2023-01-27T14:38:28.972Z,101683.25
2023-01-27T14:41:14.202Z,101693.63
2023-01-27T14:44:17.792Z,101695.53
2023-01-27T14:47:00.744Z,101691.81
2023-01-27T14:50:10.172Z,101703.75
2023-01-27T14:52:58.318Z,101700.13
2023-01-27T14:55:55.575Z,101696.13
2023-01-27T14:58:40.968Z,101705.38
2023-01-27T15:01:25.068Z,101704.69
2023-01-27T15:04:07.994Z,101698.13
2023-01-27T15:06:47.885Z,101715.47
2023-01-27T15:09:54.247Z,101712.31
2023-01-27T15:12:34.553Z,101704.53
2023-01-27T15:15:07.615Z,101713.94
2023-01-27T15:17:54.208Z,101716.41
2023-01-27T15:20:39.230Z,101723.97
2023-01-27T15:23:43.988Z,101713.53
2023-01-27T15:26:12.729Z,101718.34
2023-01-27T15:28:41.873Z,101727.97
2023-01-27T15:31:14.972Z,101725.78
2023-01-27T15:33:52.232Z,101721.13
2023-01-27T15:36:27.776Z,101729.69
2023-01-27T15:39:09.752Z,101736.72
2023-01-27T15:41:36.410Z,101735.31
2023-01-27T15:44:33.295Z,101739.34
2023-01-27T15:47:09.353Z,101737.22
2023-01-27T15:49:58.188Z,101744.44
2023-01-27T15:52:27.359Z,101745.88
2023-01-27T15:54:56.078Z,101738.00
2023-01-27T15:57:33.978Z,101742.03
2023-01-27T16:00:11.814Z,101746.72
2023-01-27T16:02:44.800Z,101754.00
2023-01-27T16:05:25.640Z,101756.91
2023-01-27T16:07:54.570Z,101753.09
2023-01-27T16:10:24.344Z,101756.50
2023-01-27T16:13:19.261Z,101754.78
2023-01-27T16:15:46.545Z,101764.91
2023-01-27T16:18:13.159Z,101756.97
2023-01-27T16:20:48.883Z,101770.13
2023-01-27T16:23:24.446Z,101766.69
2023-01-27T16:26:08.469Z,101773.50
2023-01-27T16:28:37.395Z,101771.47
2023-01-27T16:31:17.142Z,101766.78
2023-01-27T16:33:51.377Z,101771.63
2023-01-27T16:36:26.954Z,101777.25
2023-01-27T16:38:57.710Z,101773.00
2023-01-27T16:41:36.042Z,101777.56
2023-01-27T16:44:06.805Z,101784.63
2023-01-27T16:46:39.329Z,101790.44
2023-01-27T16:49:18.551Z,101791.22
2023-01-27T16:51:45.888Z,101793.88
2023-01-27T16:54:24.560Z,101797.81
2023-01-27T16:56:52.052Z,101798.06
2023-01-27T16:59:22.684Z,101796.25
2023-01-27T17:01:53.046Z,101800.25
2023-01-27T17:04:23.816Z,101797.88
2023-01-27T17:06:52.761Z,101804.94
2023-01-27T17:09:24.873Z,101802.63
2023-01-27T17:11:53.470Z,101798.31
2023-01-27T17:14:30.333Z,101800.19
2023-01-27T17:17:03.256Z,101801.63
2023-01-27T17:19:39.191Z,101806.47
2023-01-27T17:22:11.174Z,101810.56
2023-01-27T17:24:50.660Z,101817.34
2023-01-27T17:27:31.130Z,101805.19
2023-01-27T17:30:05.036Z,101824.75
2023-01-27T17:32:38.871Z,101813.00
2023-01-27T17:35:20.900Z,101814.97
2023-01-27T17:37:47.545Z,101815.03
2023-01-27T17:40:23.150Z,101816.41
2023-01-27T17:42:49.821Z,101819.09
2023-01-27T17:45:27.024Z,101822.72
2023-01-27T17:47:57.378Z,101833.13
2023-01-27T17:50:28.093Z,101835.22
2023-01-27T17:52:56.989Z,101826.94
2023-01-27T17:55:25.565Z,101838.41
2023-01-27T17:58:04.216Z,101838.44
2023-01-27T18:00:35.374Z,101836.22
2023-01-27T18:03:03.736Z,101829.22
2023-01-27T18:05:33.322Z,101839.50
2023-01-27T18:08:01.400Z,101838.13
2023-01-27T18:10:44.036Z,101839.34
2023-01-27T18:13:20.151Z,101835.22
2023-01-27T18:15:58.894Z,101840.81
2023-01-27T18:18:26.472Z,101841.53
2023-01-27T18:20:58.791Z,101842.38
2023-01-27T18:23:35.519Z,101841.53
2023-01-27T18:26:07.907Z,101836.53
2023-01-27T18:28:37.296Z,101844.38
2023-01-27T18:31:05.226Z,101840.19
2023-01-27T18:33:36.821Z,101849.69
2023-01-27T18:36:04.195Z,101846.31
2023-01-27T18:38:36.026Z,101850.44
2023-01-27T18:41:10.346Z,101858.78
2023-01-27T18:43:36.910Z,101858.53
2023-01-27T18:46:09.306Z,101855.78
2023-01-27T18:48:37.804Z,101867.19
2023-01-27T18:51:13.475Z,101862.56
2023-01-27T18:53:40.543Z,101866.81
2023-01-27T18:56:08.082Z,101872.25
2023-01-27T18:58:35.840Z,101874.31
2023-01-27T19:01:03.768Z,101885.56
2023-01-27T19:03:34.440Z,101882.09
2023-01-27T19:06:01.322Z,101879.88
2023-01-27T19:08:27.928Z,101888.63
2023-01-27T19:10:54.463Z,101889.50
2023-01-27T19:13:21.302Z,101893.78
2023-01-27T19:15:51.458Z,101890.13
2023-01-27T19:18:26.309Z,101877.50
2023-01-27T19:20:53.271Z,101882.09
2023-01-27T19:23:21.023Z,101885.50
2023-01-27T19:25:51.205Z,101880.03
2023-01-27T19:28:24.062Z,101886.06
2023-01-27T19:30:50.667Z,101882.84
2023-01-27T19:33:19.456Z,101879.56
2023-01-27T19:35:50.514Z,101883.44
2023-01-27T19:38:17.223Z,101884.81
2023-01-27T19:40:43.720Z,101896.53
2023-01-27T19:43:14.629Z,101896.19
2023-01-27T19:45:42.782Z,101893.44
2023-01-27T19:48:17.972Z,101897.50
2023-01-27T19:50:45.215Z,101903.06
2023-01-27T19:53:13.393Z,101899.81
2023-01-27T19:55:40.506Z,101895.47
2023-01-27T19:58:06.991Z,101898.25
2023-01-27T20:00:36.549Z,101897.75
2023-01-27T20:03:04.001Z,101891.31
2023-01-27T20:05:34.090Z,101890.00
2023-01-27T20:08:02.284Z,101891.06
2023-01-27T20:10:32.392Z,101897.44
2023-01-27T20:13:04.444Z,101897.66
2023-01-27T20:15:42.410Z,101898.56
2023-01-27T20:18:12.983Z,101897.28
2023-01-27T20:20:39.499Z,101900.69
2023-01-27T20:23:06.271Z,101902.66
2023-01-27T20:25:34.002Z,101901.31
2023-01-27T20:28:01.206Z,101903.91
2023-01-27T20:30:33.018Z,101911.81
2023-01-27T20:33:01.585Z,101908.50
2023-01-27T20:35:28.587Z,101909.94
2023-01-27T20:37:55.204Z,101914.47
2023-01-27T20:40:24.449Z,101903.88
2023-01-27T20:42:51.513Z,101902.06
2023-01-27T20:45:19.093Z,101913.22
2023-01-27T20:47:50.683Z,101908.69
2023-01-27T20:50:18.116Z,101908.28
2023-01-27T20:52:44.891Z,101903.78
2023-01-27T20:55:13.915Z,101906.94
2023-01-27T20:57:40.898Z,101914.50
2023-01-27T21:00:08.933Z,101906.94
2023-01-27T21:02:35.661Z,101913.81
2023-01-27T21:05:02.265Z,101917.88
2023-01-27T21:07:28.860Z,101916.78
2023-01-27T21:09:55.539Z,101916.28
2023-01-27T21:12:22.484Z,101916.66
2023-01-27T21:14:49.108Z,101922.00
2023-01-27T21:17:16.256Z,101915.75
2023-01-27T21:19:42.909Z,101917.97
2023-01-27T21:22:09.420Z,101921.25
2023-01-27T21:24:36.727Z,101921.09
2023-01-27T21:27:03.904Z,101924.34
2023-01-27T21:29:30.874Z,101927.31
2023-01-27T21:31:57.533Z,101919.38
2023-01-27T21:34:24.152Z,101922.34
2023-01-27T21:36:50.721Z,101913.34
2023-01-27T21:39:17.357Z,101905.84
2023-01-27T21:41:52.633Z,101914.47
2023-01-27T21:44:42.025Z,101915.72
2023-01-27T21:47:11.951Z,101909.69
2023-01-27T21:49:58.770Z,101904.19
2023-01-27T21:52:36.451Z,101907.56
2023-01-27T21:55:05.268Z,101893.31
2023-01-27T21:57:32.102Z,101898.72
2023-01-27T21:59:58.746Z,101894.56
2023-01-27T22:02:25.705Z,101897.00
2023-01-27T22:04:52.635Z,101901.47
2023-01-27T22:07:19.286Z,101903.00
2023-01-27T22:09:46.211Z,101899.88
2023-01-27T22:12:15.412Z,101908.66
2023-01-27T22:14:42.762Z,101908.03
2023-01-27T22:17:09.477Z,101903.91
2023-01-27T22:19:37.804Z,101908.69
2023-01-27T22:22:04.757Z,101904.91
2023-01-27T22:24:31.343Z,101910.56
2023-01-27T22:26:57.923Z,101911.31
2023-01-27T22:29:24.743Z,101913.06
2023-01-27T22:31:51.319Z,101913.63
2023-01-27T22:34:17.982Z,101906.34
2023-01-27T22:36:44.614Z,101902.19
2023-01-27T22:39:11.564Z,101902.66
2023-01-27T22:41:38.184Z,101899.72
2023-01-27T22:44:04.904Z,101902.38
2023-01-27T22:46:31.428Z,101909.22
2023-01-27T22:48:58.013Z,101901.06
2023-01-27T22:51:24.729Z,101907.97
2023-01-27T22:53:51.385Z,101901.31
2023-01-27T22:56:17.973Z,101907.16
2023-01-27T22:58:44.564Z,101917.59
2023-01-27T23:01:11.060Z,101907.28
2023-01-27T23:03:38.035Z,101908.75
2023-01-27T23:06:08.651Z,101915.81
2023-01-27T23:08:35.983Z,101910.88
2023-01-27T23:11:05.792Z,101920.59
2023-01-27T23:13:33.688Z,101914.44
2023-01-27T23:16:00.624Z,101916.00
2023-01-27T23:18:27.425Z,101917.69
2023-01-27T23:20:54.119Z,101924.34
2023-01-27T23:23:22.627Z,101927.00
2023-01-27T23:25:49.168Z,101937.47
2023-01-27T23:28:19.247Z,101927.00
2023-01-27T23:30:48.810Z,101936.94
2023-01-27T23:33:17.526Z,101923.44
2023-01-27T23:35:44.921Z,101922.84
2023-01-27T23:38:26.398Z,101933.22
2023-01-27T23:41:08.685Z,101928.13
2023-01-27T23:43:35.279Z,101929.59
2023-01-27T23:46:02.003Z,101926.72
2023-01-27T23:48:28.975Z,101921.53
2023-01-27T23:50:56.071Z,101916.41
2023-01-27T23:53:22.757Z,101924.34
2023-01-27T23:55:57.673Z,101928.50
2023-01-27T23:58:25.541Z,101937.44
